sensor_id;sensor_type;location;lat;lon;timestamp;temperature;humidity
13164;DHT22;6647;53.688;10.746;2022-11-15T00:00:31;7.50;1.00
13164;DHT22;6647;53.688;10.746;2022-11-15T00:01:52;7.50;1.00
13164;DHT22;6647;53.688;10.746;2022-11-15T00:03:14;7.40;1.00
13164;DHT22;6647;53.688;10.746;2022-11-15T00:04:35;7.40;1.00
13164;DHT22;6647;53.688;10.746;2022-11-15T00:06:01;7.50;1.00
13164;DHT22;6647;53.688;10.746;2022-11-15T00:07:22;7.40;1.00
13164;DHT22;6647;53.688;10.746;2022-11-15T00:08:43;7.40;1.00
13164;DHT22;6647;53.688;10.746;2022-11-15T00:10:04;7.40;1.00
13164;DHT22;6647;53.688;10.746;2022-11-15T00:11:25;7.40;1.00
13164;DHT22;6647;53.688;10.746;2022-11-15T00:12:46;7.40;1.00
13164;DHT22;6647;53.688;10.746;2022-11-15T00:14:07;7.40;1.00
13164;DHT22;6647;53.688;10.746;2022-11-15T00:15:28;7.40;1.00
13164;DHT22;6647;53.688;10.746;2022-11-15T00:16:49;7.40;1.00
13164;DHT22;6647;53.688;10.746;2022-11-15T00:18:13;7.40;1.00
13164;DHT22;6647;53.688;10.746;2022-11-15T00:19:34;7.40;1.00
13164;DHT22;6647;53.688;10.746;2022-11-15T00:20:56;7.40;1.00
13164;DHT22;6647;53.688;10.746;2022-11-15T00:22:17;7.40;1.00
13164;DHT22;6647;53.688;10.746;2022-11-15T00:23:38;7.40;1.00
13164;DHT22;6647;53.688;10.746;2022-11-15T00:24:59;7.30;1.00
13164;DHT22;6647;53.688;10.746;2022-11-15T00:26:19;7.30;1.00
13164;DHT22;6647;53.688;10.746;2022-11-15T00:27:40;7.30;1.00
13164;DHT22;6647;53.688;10.746;2022-11-15T00:29:01;7.30;1.00
13164;DHT22;6647;53.688;10.746;2022-11-15T00:30:22;7.30;1.00
13164;DHT22;6647;53.688;10.746;2022-11-15T00:31:43;7.30;1.00
13164;DHT22;6647;53.688;10.746;2022-11-15T00:33:05;7.20;1.00
13164;DHT22;6647;53.688;10.746;2022-11-15T00:34:26;7.30;1.00
13164;DHT22;6647;53.688;10.746;2022-11-15T00:35:47;7.20;1.00
13164;DHT22;6647;53.688;10.746;2022-11-15T00:37:07;7.20;1.00
13164;DHT22;6647;53.688;10.746;2022-11-15T00:38:33;7.20;1.00
13164;DHT22;6647;53.688;10.746;2022-11-15T00:39:54;7.20;1.00
13164;DHT22;6647;53.688;10.746;2022-11-15T00:41:15;7.20;1.00
13164;DHT22;6647;53.688;10.746;2022-11-15T00:42:35;7.20;1.00
13164;DHT22;6647;53.688;10.746;2022-11-15T00:43:57;7.20;1.00
13164;DHT22;6647;53.688;10.746;2022-11-15T00:45:17;7.20;1.00
13164;DHT22;6647;53.688;10.746;2022-11-15T00:46:38;7.20;1.00
13164;DHT22;6647;53.688;10.746;2022-11-15T00:47:59;7.20;1.00
13164;DHT22;6647;53.688;10.746;2022-11-15T00:49:20;7.20;1.00
13164;DHT22;6647;53.688;10.746;2022-11-15T00:50:41;7.20;1.00
13164;DHT22;6647;53.688;10.746;2022-11-15T00:52:02;7.20;1.00
13164;DHT22;6647;53.688;10.746;2022-11-15T00:53:22;7.10;1.00
13164;DHT22;6647;53.688;10.746;2022-11-15T00:54:43;7.20;1.00
13164;DHT22;6647;53.688;10.746;2022-11-15T00:56:04;7.20;1.00
13164;DHT22;6647;53.688;10.746;2022-11-15T00:57:25;7.10;1.00
13164;DHT22;6647;53.688;10.746;2022-11-15T00:58:46;7.10;1.00
13164;DHT22;6647;53.688;10.746;2022-11-15T01:00:08;7.10;1.00
13164;DHT22;6647;53.688;10.746;2022-11-15T01:01:29;7.10;1.00
13164;DHT22;6647;53.688;10.746;2022-11-15T01:02:50;7.10;1.00
13164;DHT22;6647;53.688;10.746;2022-11-15T01:04:11;7.10;1.00
13164;DHT22;6647;53.688;10.746;2022-11-15T01:05:32;7.10;1.00
13164;DHT22;6647;53.688;10.746;2022-11-15T01:06:53;7.10;1.00
13164;DHT22;6647;53.688;10.746;2022-11-15T01:08:14;7.10;1.00
13164;DHT22;6647;53.688;10.746;2022-11-15T01:09:35;7.10;1.00
13164;DHT22;6647;53.688;10.746;2022-11-15T01:11:08;7.00;1.00
13164;DHT22;6647;53.688;10.746;2022-11-15T01:12:29;7.10;1.00
13164;DHT22;6647;53.688;10.746;2022-11-15T01:13:50;7.00;1.00
13164;DHT22;6647;53.688;10.746;2022-11-15T01:15:11;7.00;1.00
13164;DHT22;6647;53.688;10.746;2022-11-15T01:16:32;7.00;1.00
13164;DHT22;6647;53.688;10.746;2022-11-15T01:17:53;7.00;1.00
13164;DHT22;6647;53.688;10.746;2022-11-15T01:19:15;7.10;1.00
13164;DHT22;6647;53.688;10.746;2022-11-15T01:20:41;7.00;1.00
13164;DHT22;6647;53.688;10.746;2022-11-15T01:22:02;7.10;1.00
13164;DHT22;6647;53.688;10.746;2022-11-15T01:23:23;7.00;1.00
13164;DHT22;6647;53.688;10.746;2022-11-15T01:24:44;7.10;1.00
13164;DHT22;6647;53.688;10.746;2022-11-15T01:26:07;7.00;1.00
13164;DHT22;6647;53.688;10.746;2022-11-15T01:27:28;7.00;1.00
13164;DHT22;6647;53.688;10.746;2022-11-15T01:28:49;7.00;1.00
13164;DHT22;6647;53.688;10.746;2022-11-15T01:30:10;7.00;1.00
13164;DHT22;6647;53.688;10.746;2022-11-15T01:31:31;7.00;1.00
13164;DHT22;6647;53.688;10.746;2022-11-15T01:32:52;7.00;1.00
13164;DHT22;6647;53.688;10.746;2022-11-15T01:34:13;7.00;1.00
13164;DHT22;6647;53.688;10.746;2022-11-15T01:35:38;7.00;1.00
13164;DHT22;6647;53.688;10.746;2022-11-15T01:37:00;7.00;1.00
13164;DHT22;6647;53.688;10.746;2022-11-15T01:38:22;6.90;1.00
13164;DHT22;6647;53.688;10.746;2022-11-15T01:39:43;7.00;1.00
13164;DHT22;6647;53.688;10.746;2022-11-15T01:41:04;7.00;1.00
13164;DHT22;6647;53.688;10.746;2022-11-15T01:42:25;7.00;1.00
13164;DHT22;6647;53.688;10.746;2022-11-15T01:43:54;7.00;1.00
13164;DHT22;6647;53.688;10.746;2022-11-15T01:45:15;6.90;1.00
13164;DHT22;6647;53.688;10.746;2022-11-15T01:46:37;6.90;1.00
13164;DHT22;6647;53.688;10.746;2022-11-15T01:47:59;7.00;1.00
13164;DHT22;6647;53.688;10.746;2022-11-15T01:49:21;6.90;1.00
13164;DHT22;6647;53.688;10.746;2022-11-15T01:50:43;6.90;1.00
13164;DHT22;6647;53.688;10.746;2022-11-15T01:52:06;6.90;1.00
13164;DHT22;6647;53.688;10.746;2022-11-15T01:53:30;6.90;1.00
13164;DHT22;6647;53.688;10.746;2022-11-15T01:55:09;6.90;1.00
13164;DHT22;6647;53.688;10.746;2022-11-15T01:56:36;6.90;1.00
13164;DHT22;6647;53.688;10.746;2022-11-15T01:58:01;6.90;1.00
13164;DHT22;6647;53.688;10.746;2022-11-15T01:59:23;6.90;1.00
13164;DHT22;6647;53.688;10.746;2022-11-15T02:00:43;6.90;1.00
13164;DHT22;6647;53.688;10.746;2022-11-15T02:02:05;6.90;1.00
13164;DHT22;6647;53.688;10.746;2022-11-15T02:03:38;6.90;1.00
13164;DHT22;6647;53.688;10.746;2022-11-15T02:05:00;6.90;1.00
13164;DHT22;6647;53.688;10.746;2022-11-15T02:06:22;6.90;1.00
13164;DHT22;6647;53.688;10.746;2022-11-15T02:07:43;6.80;1.00
13164;DHT22;6647;53.688;10.746;2022-11-15T02:09:05;6.80;1.00
13164;DHT22;6647;53.688;10.746;2022-11-15T02:10:27;6.80;1.00
13164;DHT22;6647;53.688;10.746;2022-11-15T02:11:50;6.80;1.00
13164;DHT22;6647;53.688;10.746;2022-11-15T02:13:11;6.80;1.00
13164;DHT22;6647;53.688;10.746;2022-11-15T02:14:32;6.80;1.00
13164;DHT22;6647;53.688;10.746;2022-11-15T02:19:29;6.80;1.00
13164;DHT22;6647;53.688;10.746;2022-11-15T02:21:09;6.80;1.00
13164;DHT22;6647;53.688;10.746;2022-11-15T02:26:07;6.80;1.00
13164;DHT22;6647;53.688;10.746;2022-11-15T02:27:50;6.80;1.00
13164;DHT22;6647;53.688;10.746;2022-11-15T02:34:35;6.70;1.00
13164;DHT22;6647;53.688;10.746;2022-11-15T02:36:06;6.70;1.00
13164;DHT22;6647;53.688;10.746;2022-11-15T02:37:43;6.70;1.00
13164;DHT22;6647;53.688;10.746;2022-11-15T02:39:13;6.70;1.00
13164;DHT22;6647;53.688;10.746;2022-11-15T02:40:41;6.70;1.00
13164;DHT22;6647;53.688;10.746;2022-11-15T02:42:23;6.60;1.00
13164;DHT22;6647;53.688;10.746;2022-11-15T02:44:15;6.60;1.00
13164;DHT22;6647;53.688;10.746;2022-11-15T02:45:46;6.60;1.00
13164;DHT22;6647;53.688;10.746;2022-11-15T02:47:12;6.60;1.00
13164;DHT22;6647;53.688;10.746;2022-11-15T02:48:34;6.60;1.00
13164;DHT22;6647;53.688;10.746;2022-11-15T02:50:00;6.60;1.00
13164;DHT22;6647;53.688;10.746;2022-11-15T02:51:21;6.50;1.00
13164;DHT22;6647;53.688;10.746;2022-11-15T02:52:45;6.50;1.00
13164;DHT22;6647;53.688;10.746;2022-11-15T02:54:12;6.50;1.00
13164;DHT22;6647;53.688;10.746;2022-11-15T02:55:53;6.50;1.00
13164;DHT22;6647;53.688;10.746;2022-11-15T02:57:17;6.50;1.00
13164;DHT22;6647;53.688;10.746;2022-11-15T02:58:58;6.50;1.00
13164;DHT22;6647;53.688;10.746;2022-11-15T03:00:23;6.50;1.00
13164;DHT22;6647;53.688;10.746;2022-11-15T03:04:08;6.50;1.00
13164;DHT22;6647;53.688;10.746;2022-11-15T03:07:07;6.40;1.00
13164;DHT22;6647;53.688;10.746;2022-11-15T03:08:34;6.40;1.00
13164;DHT22;6647;53.688;10.746;2022-11-15T03:10:24;6.40;1.00
13164;DHT22;6647;53.688;10.746;2022-11-15T03:11:50;6.40;1.00
13164;DHT22;6647;53.688;10.746;2022-11-15T03:13:36;6.40;1.00
13164;DHT22;6647;53.688;10.746;2022-11-15T03:15:04;6.40;1.00
13164;DHT22;6647;53.688;10.746;2022-11-15T03:16:28;6.40;1.00
13164;DHT22;6647;53.688;10.746;2022-11-15T03:17:57;6.40;1.00
13164;DHT22;6647;53.688;10.746;2022-11-15T03:20:46;6.40;1.00
13164;DHT22;6647;53.688;10.746;2022-11-15T03:22:12;6.40;1.00
13164;DHT22;6647;53.688;10.746;2022-11-15T03:23:37;6.40;1.00
13164;DHT22;6647;53.688;10.746;2022-11-15T03:25:02;6.30;1.00
13164;DHT22;6647;53.688;10.746;2022-11-15T03:26:25;6.40;1.00
13164;DHT22;6647;53.688;10.746;2022-11-15T03:27:52;6.40;1.00
13164;DHT22;6647;53.688;10.746;2022-11-15T03:29:22;6.40;1.00
13164;DHT22;6647;53.688;10.746;2022-11-15T03:30:46;6.40;1.00
13164;DHT22;6647;53.688;10.746;2022-11-15T03:32:14;6.40;1.00
13164;DHT22;6647;53.688;10.746;2022-11-15T03:33:35;6.30;1.00
13164;DHT22;6647;53.688;10.746;2022-11-15T03:35:00;6.30;1.00
13164;DHT22;6647;53.688;10.746;2022-11-15T03:36:23;6.30;1.00
13164;DHT22;6647;53.688;10.746;2022-11-15T03:37:59;6.30;1.00
13164;DHT22;6647;53.688;10.746;2022-11-15T03:39:21;6.30;1.00
13164;DHT22;6647;53.688;10.746;2022-11-15T03:40:56;6.30;1.00
13164;DHT22;6647;53.688;10.746;2022-11-15T03:42:23;6.30;1.00
13164;DHT22;6647;53.688;10.746;2022-11-15T03:44:03;6.30;1.00
13164;DHT22;6647;53.688;10.746;2022-11-15T03:45:43;6.30;1.00
13164;DHT22;6647;53.688;10.746;2022-11-15T03:47:31;6.30;1.00
13164;DHT22;6647;53.688;10.746;2022-11-15T03:49:00;6.30;1.00
13164;DHT22;6647;53.688;10.746;2022-11-15T03:50:24;6.30;1.00
13164;DHT22;6647;53.688;10.746;2022-11-15T03:51:45;6.20;1.00
13164;DHT22;6647;53.688;10.746;2022-11-15T03:53:07;6.20;1.00
13164;DHT22;6647;53.688;10.746;2022-11-15T03:54:28;6.30;1.00
13164;DHT22;6647;53.688;10.746;2022-11-15T03:55:49;6.20;1.00
13164;DHT22;6647;53.688;10.746;2022-11-15T03:57:10;6.30;1.00
13164;DHT22;6647;53.688;10.746;2022-11-15T03:58:31;6.20;1.00
13164;DHT22;6647;53.688;10.746;2022-11-15T03:59:51;6.20;1.00
13164;DHT22;6647;53.688;10.746;2022-11-15T04:01:12;6.20;1.00
13164;DHT22;6647;53.688;10.746;2022-11-15T04:02:33;6.20;1.00
13164;DHT22;6647;53.688;10.746;2022-11-15T04:03:54;6.20;1.00
13164;DHT22;6647;53.688;10.746;2022-11-15T04:05:15;6.20;1.00
13164;DHT22;6647;53.688;10.746;2022-11-15T04:06:36;6.20;1.00
13164;DHT22;6647;53.688;10.746;2022-11-15T04:07:59;6.20;1.00
13164;DHT22;6647;53.688;10.746;2022-11-15T04:09:20;6.10;1.00
13164;DHT22;6647;53.688;10.746;2022-11-15T04:10:41;6.10;1.00
13164;DHT22;6647;53.688;10.746;2022-11-15T04:12:02;6.10;1.00
13164;DHT22;6647;53.688;10.746;2022-11-15T04:13:22;6.10;1.00
13164;DHT22;6647;53.688;10.746;2022-11-15T04:14:43;6.10;1.00
13164;DHT22;6647;53.688;10.746;2022-11-15T04:16:24;6.20;1.00
13164;DHT22;6647;53.688;10.746;2022-11-15T04:17:51;6.10;1.00
13164;DHT22;6647;53.688;10.746;2022-11-15T04:19:12;6.10;1.00
13164;DHT22;6647;53.688;10.746;2022-11-15T04:20:52;6.10;1.00
13164;DHT22;6647;53.688;10.746;2022-11-15T04:22:31;6.10;1.00
13164;DHT22;6647;53.688;10.746;2022-11-15T04:24:10;6.10;1.00
13164;DHT22;6647;53.688;10.746;2022-11-15T04:25:34;6.10;1.00
13164;DHT22;6647;53.688;10.746;2022-11-15T04:26:55;6.10;1.00
13164;DHT22;6647;53.688;10.746;2022-11-15T04:28:16;6.10;1.00
13164;DHT22;6647;53.688;10.746;2022-11-15T04:29:37;6.10;1.00
13164;DHT22;6647;53.688;10.746;2022-11-15T04:30:58;6.10;1.00
13164;DHT22;6647;53.688;10.746;2022-11-15T04:32:19;6.10;1.00
13164;DHT22;6647;53.688;10.746;2022-11-15T04:33:39;6.10;1.00
13164;DHT22;6647;53.688;10.746;2022-11-15T04:35:00;6.10;1.00
13164;DHT22;6647;53.688;10.746;2022-11-15T04:36:21;6.10;1.00
13164;DHT22;6647;53.688;10.746;2022-11-15T04:38:02;6.10;1.00
13164;DHT22;6647;53.688;10.746;2022-11-15T04:39:23;6.10;1.00
13164;DHT22;6647;53.688;10.746;2022-11-15T04:40:44;6.10;1.00
13164;DHT22;6647;53.688;10.746;2022-11-15T04:42:05;6.20;1.00
13164;DHT22;6647;53.688;10.746;2022-11-15T04:43:26;6.20;1.00
13164;DHT22;6647;53.688;10.746;2022-11-15T04:44:47;6.20;1.00
13164;DHT22;6647;53.688;10.746;2022-11-15T04:46:08;6.10;1.00
13164;DHT22;6647;53.688;10.746;2022-11-15T04:47:28;6.20;1.00
13164;DHT22;6647;53.688;10.746;2022-11-15T04:48:50;6.20;1.00
13164;DHT22;6647;53.688;10.746;2022-11-15T04:50:12;6.20;1.00
13164;DHT22;6647;53.688;10.746;2022-11-15T04:51:34;6.30;1.00
13164;DHT22;6647;53.688;10.746;2022-11-15T04:52:54;6.20;1.00
13164;DHT22;6647;53.688;10.746;2022-11-15T04:54:15;6.20;1.00
13164;DHT22;6647;53.688;10.746;2022-11-15T04:55:37;6.20;1.00
13164;DHT22;6647;53.688;10.746;2022-11-15T04:56:58;6.20;1.00
13164;DHT22;6647;53.688;10.746;2022-11-15T04:58:19;6.20;1.00
13164;DHT22;6647;53.688;10.746;2022-11-15T04:59:40;6.30;1.00
13164;DHT22;6647;53.688;10.746;2022-11-15T05:01:11;6.20;1.00
13164;DHT22;6647;53.688;10.746;2022-11-15T05:02:34;6.20;1.00
13164;DHT22;6647;53.688;10.746;2022-11-15T05:04:13;6.20;1.00
13164;DHT22;6647;53.688;10.746;2022-11-15T05:05:40;6.20;1.00
13164;DHT22;6647;53.688;10.746;2022-11-15T05:07:01;6.20;1.00
13164;DHT22;6647;53.688;10.746;2022-11-15T05:08:25;6.20;1.00
13164;DHT22;6647;53.688;10.746;2022-11-15T05:09:46;6.20;1.00
13164;DHT22;6647;53.688;10.746;2022-11-15T05:11:06;6.20;1.00
13164;DHT22;6647;53.688;10.746;2022-11-15T05:12:27;6.20;1.00
13164;DHT22;6647;53.688;10.746;2022-11-15T05:13:48;6.20;1.00
13164;DHT22;6647;53.688;10.746;2022-11-15T05:15:09;6.10;1.00
13164;DHT22;6647;53.688;10.746;2022-11-15T05:16:30;6.10;1.00
13164;DHT22;6647;53.688;10.746;2022-11-15T05:17:57;6.20;1.00
13164;DHT22;6647;53.688;10.746;2022-11-15T05:19:18;6.20;1.00
13164;DHT22;6647;53.688;10.746;2022-11-15T05:20:39;6.10;1.00
13164;DHT22;6647;53.688;10.746;2022-11-15T05:22:00;6.20;1.00
13164;DHT22;6647;53.688;10.746;2022-11-15T05:23:21;6.10;1.00
13164;DHT22;6647;53.688;10.746;2022-11-15T05:24:41;6.20;1.00
13164;DHT22;6647;53.688;10.746;2022-11-15T05:26:04;6.20;1.00
13164;DHT22;6647;53.688;10.746;2022-11-15T05:27:25;6.10;1.00
13164;DHT22;6647;53.688;10.746;2022-11-15T05:28:46;6.20;1.00
13164;DHT22;6647;53.688;10.746;2022-11-15T05:30:07;6.20;1.00
13164;DHT22;6647;53.688;10.746;2022-11-15T05:31:28;6.20;1.00
13164;DHT22;6647;53.688;10.746;2022-11-15T05:32:49;6.20;1.00
13164;DHT22;6647;53.688;10.746;2022-11-15T05:34:11;6.20;1.00
13164;DHT22;6647;53.688;10.746;2022-11-15T05:35:39;6.20;1.00
13164;DHT22;6647;53.688;10.746;2022-11-15T05:37:03;6.20;1.00
13164;DHT22;6647;53.688;10.746;2022-11-15T05:38:24;6.20;1.00
13164;DHT22;6647;53.688;10.746;2022-11-15T05:39:45;6.20;1.00
13164;DHT22;6647;53.688;10.746;2022-11-15T05:41:06;6.20;1.00
13164;DHT22;6647;53.688;10.746;2022-11-15T05:42:27;6.30;1.00
13164;DHT22;6647;53.688;10.746;2022-11-15T05:43:49;6.30;1.00
13164;DHT22;6647;53.688;10.746;2022-11-15T05:45:11;6.30;1.00
13164;DHT22;6647;53.688;10.746;2022-11-15T05:46:33;6.30;1.00
13164;DHT22;6647;53.688;10.746;2022-11-15T05:47:55;6.30;1.00
13164;DHT22;6647;53.688;10.746;2022-11-15T05:49:20;6.30;1.00
13164;DHT22;6647;53.688;10.746;2022-11-15T05:50:45;6.30;1.00
13164;DHT22;6647;53.688;10.746;2022-11-15T05:52:08;6.20;1.00
13164;DHT22;6647;53.688;10.746;2022-11-15T05:53:32;6.20;1.00
13164;DHT22;6647;53.688;10.746;2022-11-15T05:54:53;6.30;1.00
13164;DHT22;6647;53.688;10.746;2022-11-15T05:56:16;6.20;1.00
13164;DHT22;6647;53.688;10.746;2022-11-15T05:57:37;6.30;1.00
13164;DHT22;6647;53.688;10.746;2022-11-15T05:58:58;6.30;1.00
13164;DHT22;6647;53.688;10.746;2022-11-15T06:00:19;6.30;1.00
13164;DHT22;6647;53.688;10.746;2022-11-15T06:01:40;6.30;1.00
13164;DHT22;6647;53.688;10.746;2022-11-15T06:03:01;6.30;1.00
13164;DHT22;6647;53.688;10.746;2022-11-15T06:04:22;6.30;1.00
13164;DHT22;6647;53.688;10.746;2022-11-15T06:05:43;6.30;1.00
13164;DHT22;6647;53.688;10.746;2022-11-15T06:07:04;6.30;1.00
13164;DHT22;6647;53.688;10.746;2022-11-15T06:08:25;6.40;1.00
13164;DHT22;6647;53.688;10.746;2022-11-15T06:09:46;6.40;1.00
13164;DHT22;6647;53.688;10.746;2022-11-15T06:11:07;6.30;1.00
13164;DHT22;6647;53.688;10.746;2022-11-15T06:12:28;6.30;1.00
13164;DHT22;6647;53.688;10.746;2022-11-15T06:13:49;6.40;1.00
13164;DHT22;6647;53.688;10.746;2022-11-15T06:15:10;6.40;1.00
13164;DHT22;6647;53.688;10.746;2022-11-15T06:16:31;6.50;1.00
13164;DHT22;6647;53.688;10.746;2022-11-15T06:17:52;6.40;1.00
13164;DHT22;6647;53.688;10.746;2022-11-15T06:19:12;6.50;1.00
13164;DHT22;6647;53.688;10.746;2022-11-15T06:20:33;6.50;1.00
13164;DHT22;6647;53.688;10.746;2022-11-15T06:21:54;6.50;1.00
13164;DHT22;6647;53.688;10.746;2022-11-15T06:23:15;6.50;1.00
13164;DHT22;6647;53.688;10.746;2022-11-15T06:24:36;6.50;1.00
13164;DHT22;6647;53.688;10.746;2022-11-15T06:26:00;6.50;1.00
13164;DHT22;6647;53.688;10.746;2022-11-15T06:27:21;6.50;1.00
13164;DHT22;6647;53.688;10.746;2022-11-15T06:28:42;6.50;1.00
13164;DHT22;6647;53.688;10.746;2022-11-15T06:30:03;6.40;1.00
13164;DHT22;6647;53.688;10.746;2022-11-15T06:31:24;6.40;1.00
13164;DHT22;6647;53.688;10.746;2022-11-15T06:32:45;6.40;1.00
13164;DHT22;6647;53.688;10.746;2022-11-15T06:34:06;6.40;1.00
13164;DHT22;6647;53.688;10.746;2022-11-15T06:35:28;6.40;1.00
13164;DHT22;6647;53.688;10.746;2022-11-15T06:36:49;6.40;1.00
13164;DHT22;6647;53.688;10.746;2022-11-15T06:38:10;6.50;1.00
13164;DHT22;6647;53.688;10.746;2022-11-15T06:39:31;6.50;1.00
13164;DHT22;6647;53.688;10.746;2022-11-15T06:40:52;6.50;1.00
13164;DHT22;6647;53.688;10.746;2022-11-15T06:42:13;6.40;1.00
13164;DHT22;6647;53.688;10.746;2022-11-15T06:43:34;6.50;1.00
13164;DHT22;6647;53.688;10.746;2022-11-15T06:44:55;6.50;1.00
13164;DHT22;6647;53.688;10.746;2022-11-15T06:46:16;6.50;1.00
13164;DHT22;6647;53.688;10.746;2022-11-15T06:47:45;6.40;1.00
13164;DHT22;6647;53.688;10.746;2022-11-15T06:49:06;6.40;1.00
13164;DHT22;6647;53.688;10.746;2022-11-15T06:50:27;6.40;1.00
13164;DHT22;6647;53.688;10.746;2022-11-15T06:51:48;6.50;1.00
13164;DHT22;6647;53.688;10.746;2022-11-15T06:53:09;6.50;1.00
13164;DHT22;6647;53.688;10.746;2022-11-15T06:54:30;6.50;1.00
13164;DHT22;6647;53.688;10.746;2022-11-15T06:55:52;6.50;1.00
13164;DHT22;6647;53.688;10.746;2022-11-15T06:57:14;6.50;1.00
13164;DHT22;6647;53.688;10.746;2022-11-15T06:58:35;6.50;1.00
13164;DHT22;6647;53.688;10.746;2022-11-15T06:59:56;6.50;1.00
13164;DHT22;6647;53.688;10.746;2022-11-15T07:01:17;6.50;1.00
13164;DHT22;6647;53.688;10.746;2022-11-15T07:02:38;6.50;1.00
13164;DHT22;6647;53.688;10.746;2022-11-15T07:03:59;6.50;1.00
13164;DHT22;6647;53.688;10.746;2022-11-15T07:05:20;6.50;1.00
13164;DHT22;6647;53.688;10.746;2022-11-15T07:06:40;6.50;1.00
13164;DHT22;6647;53.688;10.746;2022-11-15T07:08:02;6.50;1.00
13164;DHT22;6647;53.688;10.746;2022-11-15T07:09:23;6.50;1.00
13164;DHT22;6647;53.688;10.746;2022-11-15T07:10:44;6.50;1.00
13164;DHT22;6647;53.688;10.746;2022-11-15T07:12:05;6.50;1.00
13164;DHT22;6647;53.688;10.746;2022-11-15T07:13:27;6.50;1.00
13164;DHT22;6647;53.688;10.746;2022-11-15T07:14:48;6.50;1.00
13164;DHT22;6647;53.688;10.746;2022-11-15T07:16:10;6.50;1.00
13164;DHT22;6647;53.688;10.746;2022-11-15T07:17:31;6.50;1.00
13164;DHT22;6647;53.688;10.746;2022-11-15T07:18:52;6.60;1.00
13164;DHT22;6647;53.688;10.746;2022-11-15T07:20:13;6.60;1.00
13164;DHT22;6647;53.688;10.746;2022-11-15T07:21:36;6.60;1.00
13164;DHT22;6647;53.688;10.746;2022-11-15T07:23:04;6.60;1.00
13164;DHT22;6647;53.688;10.746;2022-11-15T07:24:25;6.60;1.00
13164;DHT22;6647;53.688;10.746;2022-11-15T07:25:46;6.60;1.00
13164;DHT22;6647;53.688;10.746;2022-11-15T07:27:07;6.60;1.00
13164;DHT22;6647;53.688;10.746;2022-11-15T07:28:28;6.60;1.00
13164;DHT22;6647;53.688;10.746;2022-11-15T07:29:49;6.60;1.00
13164;DHT22;6647;53.688;10.746;2022-11-15T07:31:10;6.60;1.00
13164;DHT22;6647;53.688;10.746;2022-11-15T07:32:31;6.60;1.00
13164;DHT22;6647;53.688;10.746;2022-11-15T07:33:52;6.70;1.00
13164;DHT22;6647;53.688;10.746;2022-11-15T07:35:13;6.70;1.00
13164;DHT22;6647;53.688;10.746;2022-11-15T07:36:33;6.70;1.00
13164;DHT22;6647;53.688;10.746;2022-11-15T07:37:58;6.70;1.00
13164;DHT22;6647;53.688;10.746;2022-11-15T07:39:20;6.70;1.00
13164;DHT22;6647;53.688;10.746;2022-11-15T07:40:41;6.70;1.00
13164;DHT22;6647;53.688;10.746;2022-11-15T07:42:01;6.70;1.00
13164;DHT22;6647;53.688;10.746;2022-11-15T07:43:41;6.70;1.00
13164;DHT22;6647;53.688;10.746;2022-11-15T07:45:02;6.80;1.00
13164;DHT22;6647;53.688;10.746;2022-11-15T07:46:23;6.80;1.00
13164;DHT22;6647;53.688;10.746;2022-11-15T07:47:48;6.80;1.00
13164;DHT22;6647;53.688;10.746;2022-11-15T07:49:09;6.80;1.00
13164;DHT22;6647;53.688;10.746;2022-11-15T07:50:29;6.90;1.00
13164;DHT22;6647;53.688;10.746;2022-11-15T07:51:51;6.90;1.00
13164;DHT22;6647;53.688;10.746;2022-11-15T07:53:12;6.90;1.00
13164;DHT22;6647;53.688;10.746;2022-11-15T07:54:35;6.90;1.00
13164;DHT22;6647;53.688;10.746;2022-11-15T07:55:56;6.90;1.00
13164;DHT22;6647;53.688;10.746;2022-11-15T07:57:17;7.00;1.00
13164;DHT22;6647;53.688;10.746;2022-11-15T07:58:38;7.00;1.00
13164;DHT22;6647;53.688;10.746;2022-11-15T07:59:58;7.00;1.00
13164;DHT22;6647;53.688;10.746;2022-11-15T08:01:19;7.00;1.00
13164;DHT22;6647;53.688;10.746;2022-11-15T08:02:41;7.00;1.00
13164;DHT22;6647;53.688;10.746;2022-11-15T08:04:01;7.00;1.00
13164;DHT22;6647;53.688;10.746;2022-11-15T08:05:22;7.10;1.00
13164;DHT22;6647;53.688;10.746;2022-11-15T08:06:43;7.10;1.00
13164;DHT22;6647;53.688;10.746;2022-11-15T08:08:04;7.10;1.00
13164;DHT22;6647;53.688;10.746;2022-11-15T08:09:25;7.10;1.00
13164;DHT22;6647;53.688;10.746;2022-11-15T08:10:47;7.10;1.00
13164;DHT22;6647;53.688;10.746;2022-11-15T08:12:08;7.20;1.00
13164;DHT22;6647;53.688;10.746;2022-11-15T08:13:29;7.20;1.00
13164;DHT22;6647;53.688;10.746;2022-11-15T08:14:50;7.20;1.00
13164;DHT22;6647;53.688;10.746;2022-11-15T08:16:11;7.20;1.00
13164;DHT22;6647;53.688;10.746;2022-11-15T08:17:33;7.20;1.00
13164;DHT22;6647;53.688;10.746;2022-11-15T08:18:54;7.20;1.00
13164;DHT22;6647;53.688;10.746;2022-11-15T08:20:15;7.30;1.00
13164;DHT22;6647;53.688;10.746;2022-11-15T08:21:36;7.30;1.00
13164;DHT22;6647;53.688;10.746;2022-11-15T08:22:59;7.30;1.00
13164;DHT22;6647;53.688;10.746;2022-11-15T08:24:20;7.30;1.00
13164;DHT22;6647;53.688;10.746;2022-11-15T08:25:41;7.30;1.00
13164;DHT22;6647;53.688;10.746;2022-11-15T08:27:02;7.40;1.00
13164;DHT22;6647;53.688;10.746;2022-11-15T08:28:23;7.40;1.00
13164;DHT22;6647;53.688;10.746;2022-11-15T08:29:44;7.40;1.00
13164;DHT22;6647;53.688;10.746;2022-11-15T08:31:05;7.40;1.00
13164;DHT22;6647;53.688;10.746;2022-11-15T08:32:26;7.40;1.00
13164;DHT22;6647;53.688;10.746;2022-11-15T08:33:47;7.40;1.00
13164;DHT22;6647;53.688;10.746;2022-11-15T08:35:08;7.50;1.00
13164;DHT22;6647;53.688;10.746;2022-11-15T08:36:29;7.50;1.00
13164;DHT22;6647;53.688;10.746;2022-11-15T08:37:52;7.50;1.00
13164;DHT22;6647;53.688;10.746;2022-11-15T08:39:13;7.50;1.00
13164;DHT22;6647;53.688;10.746;2022-11-15T08:40:35;7.60;1.00
13164;DHT22;6647;53.688;10.746;2022-11-15T08:41:56;7.60;1.00
13164;DHT22;6647;53.688;10.746;2022-11-15T08:43:18;7.60;1.00
13164;DHT22;6647;53.688;10.746;2022-11-15T08:44:39;7.60;1.00
13164;DHT22;6647;53.688;10.746;2022-11-15T08:45:59;7.60;1.00
13164;DHT22;6647;53.688;10.746;2022-11-15T08:47:20;7.60;1.00
13164;DHT22;6647;53.688;10.746;2022-11-15T08:48:41;7.60;1.00
13164;DHT22;6647;53.688;10.746;2022-11-15T08:50:02;7.60;1.00
13164;DHT22;6647;53.688;10.746;2022-11-15T08:51:23;7.60;1.00
13164;DHT22;6647;53.688;10.746;2022-11-15T08:52:47;7.60;1.00
13164;DHT22;6647;53.688;10.746;2022-11-15T08:54:10;7.60;1.00
13164;DHT22;6647;53.688;10.746;2022-11-15T08:55:31;7.70;1.00
13164;DHT22;6647;53.688;10.746;2022-11-15T08:56:52;7.70;1.00
13164;DHT22;6647;53.688;10.746;2022-11-15T08:58:13;7.80;1.00
13164;DHT22;6647;53.688;10.746;2022-11-15T08:59:34;7.80;1.00
13164;DHT22;6647;53.688;10.746;2022-11-15T09:00:55;7.80;1.00
13164;DHT22;6647;53.688;10.746;2022-11-15T09:02:16;7.80;1.00
13164;DHT22;6647;53.688;10.746;2022-11-15T09:03:40;7.80;1.00
13164;DHT22;6647;53.688;10.746;2022-11-15T09:05:01;7.80;1.00
13164;DHT22;6647;53.688;10.746;2022-11-15T09:06:22;7.80;1.00
13164;DHT22;6647;53.688;10.746;2022-11-15T09:07:42;7.90;1.00
13164;DHT22;6647;53.688;10.746;2022-11-15T09:09:04;7.90;1.00
13164;DHT22;6647;53.688;10.746;2022-11-15T09:10:25;7.90;1.00
13164;DHT22;6647;53.688;10.746;2022-11-15T09:11:46;7.90;1.00
13164;DHT22;6647;53.688;10.746;2022-11-15T09:13:07;7.90;1.00
13164;DHT22;6647;53.688;10.746;2022-11-15T09:14:28;7.90;1.00
13164;DHT22;6647;53.688;10.746;2022-11-15T09:15:49;8.00;1.00
13164;DHT22;6647;53.688;10.746;2022-11-15T09:17:10;8.00;1.00
13164;DHT22;6647;53.688;10.746;2022-11-15T09:18:31;7.90;1.00
13164;DHT22;6647;53.688;10.746;2022-11-15T09:19:52;7.90;1.00